Time;durP1;ratioP1;P1;durP2;ratioP2;P2;SDS_P1;SDS_P2;PMS_P1;PMS_P2;Temp;Humidity;BMP_temperature;BMP_pressure;BME280_temperature;BME280_humidity;BME280_pressure;Samples;Min_cycle;Max_cycle;Signal;HPM_P1;HPM_P2
2022/03/16 00:01:46;;;;;;;5.67;4.03;;;5.40;99.90;;;;;;4996947;28;20647;-81
2022/03/16 00:04:11;;;;;;;7.70;4.80;;;5.30;99.90;;;;;;4995368;28;20213;-81
2022/03/16 00:06:37;;;;;;;7.17;4.43;;;5.40;99.90;;;;;;4994939;28;20187;-81
2022/03/16 00:09:02;;;;;;;5.83;3.80;;;5.30;99.90;;;;;;4994812;28;20275;-81
2022/03/16 00:11:28;;;;;;;5.17;3.80;;;5.30;99.90;;;;;;4996943;28;20237;-81
2022/03/16 00:13:54;;;;;;;6.83;3.70;;;5.30;99.90;;;;;;4995034;28;20280;-81
2022/03/16 00:16:19;;;;;;;5.77;3.60;;;5.30;99.90;;;;;;4996870;28;20209;-81
2022/03/16 00:18:45;;;;;;;6.00;4.70;;;5.20;99.90;;;;;;4996093;28;20178;-81
2022/03/16 00:21:10;;;;;;;6.07;4.13;;;5.10;99.90;;;;;;5011716;28;20178;-81
2022/03/16 00:23:36;;;;;;;6.87;4.20;;;4.90;99.90;;;;;;4994841;28;20197;-81
2022/03/16 00:26:03;;;;;;;6.73;4.70;;;4.90;99.90;;;;;;4992820;28;20212;-81
2022/03/16 00:28:29;;;;;;;11.13;4.73;;;4.80;99.90;;;;;;4991424;28;20182;-80
2022/03/16 00:30:54;;;;;;;6.43;4.80;;;4.80;99.90;;;;;;4991546;28;20439;-81
2022/03/16 00:33:20;;;;;;;5.20;3.33;;;4.80;99.90;;;;;;4995944;28;20448;-81
2022/03/16 00:35:45;;;;;;;4.97;3.80;;;4.80;99.90;;;;;;4999233;28;20185;-81
2022/03/16 00:38:13;;;;;;;7.60;4.13;;;4.80;99.90;;;;;;5014050;28;20268;-81
2022/03/16 00:40:38;;;;;;;7.07;4.00;;;4.70;99.90;;;;;;4999042;28;20547;-81
2022/03/16 00:43:04;;;;;;;5.10;3.80;;;4.60;99.90;;;;;;4998957;28;20491;-81
2022/03/16 00:45:30;;;;;;;4.73;4.00;;;4.60;99.90;;;;;;4998825;28;20209;-81
2022/03/16 00:47:55;;;;;;;6.33;3.77;;;4.60;99.90;;;;;;4997672;28;20178;-81
2022/03/16 00:50:21;;;;;;;5.10;3.80;;;4.50;99.90;;;;;;4997671;28;20182;-81
2022/03/16 00:52:46;;;;;;;7.33;4.10;;;4.50;99.90;;;;;;5014089;28;20185;-81
2022/03/16 00:55:12;;;;;;;7.07;4.40;;;4.50;99.90;;;;;;5013921;28;20276;-80
2022/03/16 00:57:37;;;;;;;5.47;3.83;;;4.50;99.90;;;;;;5013677;28;20189;-81
2022/03/16 01:00:05;;;;;;;6.87;4.73;;;4.60;99.90;;;;;;4997579;28;20208;-80
2022/03/16 01:02:32;;;;;;;7.30;5.17;;;4.50;99.90;;;;;;4998845;28;20174;-81
2022/03/16 01:04:57;;;;;;;6.87;4.40;;;4.50;99.90;;;;;;4998777;28;20466;-81
2022/03/16 01:07:23;;;;;;;7.20;4.60;;;4.40;99.90;;;;;;5013643;28;20800;-81
2022/03/16 01:09:48;;;;;;;5.77;3.73;;;4.40;99.90;;;;;;4999115;28;20188;-81
2022/03/16 01:12:14;;;;;;;6.23;4.70;;;4.40;99.90;;;;;;5013752;28;20181;-81
2022/03/16 01:14:40;;;;;;;5.67;3.27;;;4.40;99.90;;;;;;4997447;28;20205;-81
2022/03/16 01:17:05;;;;;;;6.40;4.43;;;4.40;99.90;;;;;;4998392;28;20838;-83
2022/03/16 01:19:34;;;;;;;5.27;4.43;;;4.30;99.90;;;;;;4998929;28;20253;-83
2022/03/16 01:22:01;;;;;;;6.63;4.40;;;4.30;99.90;;;;;;4997579;28;20324;-83
2022/03/16 01:24:27;;;;;;;5.80;4.23;;;4.40;99.90;;;;;;4998769;28;20483;-83
2022/03/16 01:26:52;;;;;;;6.67;4.27;;;4.30;99.90;;;;;;4997264;28;20437;-81
2022/03/16 01:29:18;;;;;;;6.30;4.43;;;4.20;99.90;;;;;;4997608;28;20189;-83
2022/03/16 01:31:43;;;;;;;6.20;4.63;;;4.10;99.90;;;;;;4997564;28;20185;-80
2022/03/16 01:34:09;;;;;;;4.60;3.53;;;4.20;99.90;;;;;;4997685;28;20198;-81
2022/03/16 01:36:35;;;;;;;6.00;3.60;;;4.20;99.90;;;;;;5013663;28;20225;-82
2022/03/16 01:39:00;;;;;;;5.87;4.23;;;4.20;99.90;;;;;;4997468;28;20177;-84
2022/03/16 01:41:26;;;;;;;6.27;3.93;;;4.10;99.90;;;;;;4997380;28;20192;-83
2022/03/16 01:43:56;;;;;;;4.20;3.40;;;4.10;99.90;;;;;;4997258;28;20216;-82
2022/03/16 01:46:22;;;;;;;4.97;3.53;;;4.10;99.90;;;;;;4995718;28;20252;-81
2022/03/16 01:48:48;;;;;;;6.77;3.70;;;4.20;99.90;;;;;;4997006;28;20458;-81
2022/03/16 01:51:13;;;;;;;6.67;3.50;;;4.10;99.90;;;;;;5012566;28;20796;-81
2022/03/16 01:53:43;;;;;;;7.37;4.83;;;4.10;99.90;;;;;;4996285;28;20696;-81
2022/03/16 01:56:09;;;;;;;5.80;3.40;;;4.10;99.90;;;;;;4997931;28;20420;-80
2022/03/16 01:58:35;;;;;;;4.60;3.13;;;4.20;99.90;;;;;;5012556;28;20907;-80
2022/03/16 02:01:01;;;;;;;7.80;3.80;;;4.20;99.90;;;;;;4996244;28;20951;-81
2022/03/16 02:03:27;;;;;;;5.43;3.80;;;4.10;99.90;;;;;;4997386;28;20441;-80
2022/03/16 02:05:53;;;;;;;6.20;4.43;;;4.20;99.90;;;;;;4995335;28;20464;-80
2022/03/16 02:08:19;;;;;;;7.37;4.87;;;4.20;99.90;;;;;;4995546;28;20272;-81
2022/03/16 02:10:45;;;;;;;5.60;4.03;;;4.20;99.90;;;;;;4997128;28;20510;-80
2022/03/16 02:13:11;;;;;;;6.97;4.10;;;4.20;99.90;;;;;;4995498;28;20236;-80
2022/03/16 02:15:37;;;;;;;5.60;3.77;;;4.20;99.90;;;;;;4995672;28;20582;-81
2022/03/16 02:18:03;;;;;;;5.50;3.57;;;4.20;99.90;;;;;;4995159;28;20428;-80
2022/03/16 02:20:29;;;;;;;7.60;4.93;;;4.20;99.90;;;;;;4996754;28;20597;-80
2022/03/16 02:23:00;;;;;;;5.10;3.80;;;4.20;99.90;;;;;;5011682;28;20466;-80
2022/03/16 02:25:27;;;;;;;6.83;4.10;;;4.30;99.90;;;;;;4995369;28;20472;-80
2022/03/16 02:27:53;;;;;;;8.43;4.43;;;4.40;99.90;;;;;;4996481;28;20423;-80
2022/03/16 02:30:23;;;;;;;6.60;4.40;;;4.40;99.90;;;;;;4994957;28;20425;-81
2022/03/16 02:32:48;;;;;;;6.40;4.70;;;4.30;99.90;;;;;;4996609;28;20185;-80
2022/03/16 02:35:14;;;;;;;7.23;5.10;;;4.40;99.90;;;;;;4994962;28;20483;-81
2022/03/16 02:37:40;;;;;;;7.50;5.70;;;4.40;99.90;;;;;;4994864;28;20630;-80
2022/03/16 02:40:09;;;;;;;7.00;5.10;;;4.40;99.90;;;;;;4994797;28;20196;-80
2022/03/16 02:42:36;;;;;;;8.00;5.10;;;4.40;99.90;;;;;;4994626;28;20425;-81
2022/03/16 02:45:01;;;;;;;6.67;3.87;;;4.50;99.90;;;;;;4994635;28;20476;-83
2022/03/16 02:47:28;;;;;;;7.13;4.43;;;4.50;99.90;;;;;;4994371;28;20431;-80
2022/03/16 02:49:54;;;;;;;7.23;4.60;;;4.40;99.90;;;;;;4994611;28;20182;-82
2022/03/16 02:52:21;;;;;;;6.17;4.83;;;4.50;99.90;;;;;;5010853;28;20456;-80
2022/03/16 02:54:47;;;;;;;6.07;4.87;;;4.50;99.90;;;;;;4995501;28;20447;-81
2022/03/16 02:57:15;;;;;;;5.40;4.33;;;4.40;99.90;;;;;;4994877;28;20507;-80
2022/03/16 02:59:42;;;;;;;6.17;4.47;;;4.40;99.90;;;;;;5010784;28;20284;-81
2022/03/16 03:02:09;;;;;;;5.10;3.63;;;4.30;99.90;;;;;;4994254;28;20432;-81
2022/03/16 03:04:34;;;;;;;5.00;4.43;;;4.30;99.90;;;;;;5010429;28;20479;-80
2022/03/16 03:07:00;;;;;;;7.20;4.50;;;4.30;99.90;;;;;;5009744;28;20420;-80
2022/03/16 03:09:25;;;;;;;6.10;4.33;;;4.30;99.90;;;;;;4994329;28;20283;-80
2022/03/16 03:11:52;;;;;;;5.40;3.90;;;4.40;99.90;;;;;;4995167;28;20549;-82
2022/03/16 03:14:17;;;;;;;5.40;4.10;;;4.30;99.90;;;;;;4993779;28;20308;-81
2022/03/16 03:16:43;;;;;;;6.87;4.37;;;4.30;99.90;;;;;;4994821;28;21185;-80
2022/03/16 03:19:09;;;;;;;9.53;4.77;;;4.30;99.90;;;;;;4993933;28;20671;-80
2022/03/16 03:21:34;;;;;;;6.03;4.63;;;4.30;99.90;;;;;;4993247;28;20185;-80
2022/03/16 03:24:00;;;;;;;7.83;4.70;;;4.30;99.90;;;;;;5009698;28;20271;-80
2022/03/16 03:26:25;;;;;;;10.23;4.97;;;4.30;99.90;;;;;;4992959;28;20252;-81
2022/03/16 03:28:51;;;;;;;5.97;4.67;;;4.30;99.90;;;;;;4993031;28;20212;-80
2022/03/16 03:31:17;;;;;;;8.00;4.77;;;4.30;99.90;;;;;;4994249;28;20192;-80
2022/03/16 03:33:43;;;;;;;9.17;5.07;;;4.30;99.90;;;;;;4993020;28;20198;-80
2022/03/16 03:36:08;;;;;;;8.10;5.50;;;4.30;99.90;;;;;;4992891;28;20425;-80
2022/03/16 03:38:34;;;;;;;10.47;4.70;;;4.40;99.90;;;;;;5009447;28;20192;-80
2022/03/16 03:41:00;;;;;;;5.97;4.80;;;4.30;99.90;;;;;;4994123;28;20185;-80
2022/03/16 03:43:25;;;;;;;6.13;4.80;;;4.40;99.90;;;;;;4992891;28;20283;-80
2022/03/16 03:45:51;;;;;;;7.27;4.70;;;4.30;99.90;;;;;;5040170;22;20316;-67
2022/03/16 03:48:17;;;;;;;7.13;5.00;;;4.30;99.90;;;;;;5007471;28;20177;-67
2022/03/16 03:50:43;;;;;;;8.70;6.00;;;4.20;99.90;;;;;;5016151;28;20184;-67
2022/03/16 03:53:08;;;;;;;7.70;5.00;;;4.10;99.90;;;;;;5007838;28;20182;-67
2022/03/16 03:55:34;;;;;;;7.70;4.87;;;4.10;99.90;;;;;;5008046;28;20211;-67
2022/03/16 03:58:00;;;;;;;7.67;5.27;;;4.10;99.90;;;;;;5007549;28;20250;-67
2022/03/16 04:00:26;;;;;;;9.60;6.43;;;4.00;99.90;;;;;;5007919;28;20736;-67
2022/03/16 04:02:52;;;;;;;6.83;5.13;;;4.10;99.90;;;;;;5007942;28;20305;-67
2022/03/16 04:05:19;;;;;;;6.53;4.60;;;4.00;99.90;;;;;;5007799;28;20232;-67
2022/03/16 04:07:48;;;;;;;6.00;3.80;;;4.10;99.90;;;;;;5006654;28;20955;-67
2022/03/16 04:10:14;;;;;;;8.60;5.13;;;4.10;99.90;;;;;;5007832;28;20428;-67
2022/03/16 04:12:40;;;;;;;7.83;5.27;;;4.00;99.90;;;;;;5007451;28;20427;-67
2022/03/16 04:15:06;;;;;;;6.43;4.27;;;4.00;99.90;;;;;;5007629;28;20494;-67
2022/03/16 04:17:32;;;;;;;6.47;4.67;;;4.10;99.90;;;;;;5007511;28;20644;-67
2022/03/16 04:19:58;;;;;;;7.73;5.07;;;4.00;99.90;;;;;;5007520;28;20516;-67
2022/03/16 04:22:30;;;;;;;8.87;6.33;;;4.10;99.90;;;;;;5007671;28;20881;-67
2022/03/16 04:24:56;;;;;;;10.53;5.07;;;4.10;99.90;;;;;;5007328;28;20824;-67
2022/03/16 04:27:22;;;;;;;5.90;4.77;;;4.20;99.90;;;;;;5007111;28;20444;-67
2022/03/16 04:29:48;;;;;;;6.30;4.80;;;4.30;99.90;;;;;;5007454;28;20186;-67
2022/03/16 04:32:14;;;;;;;7.40;4.30;;;4.30;99.90;;;;;;5007483;28;20419;-67
2022/03/16 04:34:39;;;;;;;8.87;4.93;;;4.30;99.90;;;;;;5007332;28;20656;-67
2022/03/16 04:37:05;;;;;;;9.13;5.63;;;4.30;99.90;;;;;;5007024;28;20201;-67
2022/03/16 04:39:31;;;;;;;10.30;5.73;;;4.40;99.90;;;;;;5007256;28;20208;-67
2022/03/16 04:41:57;;;;;;;8.87;5.10;;;4.40;99.90;;;;;;5007097;28;20182;-67
2022/03/16 04:44:23;;;;;;;9.63;4.80;;;4.40;99.90;;;;;;5007228;28;20474;-67
2022/03/16 04:46:49;;;;;;;11.80;6.90;;;4.40;99.90;;;;;;5006864;28;20452;-67
2022/03/16 04:49:15;;;;;;;7.30;5.40;;;4.30;99.90;;;;;;5007401;28;20421;-67
2022/03/16 04:51:41;;;;;;;7.73;5.47;;;4.30;99.90;;;;;;5007335;28;20463;-68
2022/03/16 04:54:08;;;;;;;11.47;6.73;;;4.30;99.90;;;;;;5007327;28;20192;-67
2022/03/16 04:56:35;;;;;;;8.10;5.40;;;4.30;99.90;;;;;;5006791;28;20528;-68
2022/03/16 04:59:01;;;;;;;7.93;5.13;;;4.30;99.90;;;;;;5007239;28;20788;-67
2022/03/16 05:01:27;;;;;;;8.40;5.40;;;4.30;99.90;;;;;;5007427;28;20944;-67
2022/03/16 05:03:53;;;;;;;8.40;5.00;;;4.30;99.90;;;;;;5007177;28;20797;-67
2022/03/16 05:06:19;;;;;;;9.50;5.67;;;4.20;99.90;;;;;;5006956;28;20447;-67
2022/03/16 05:08:47;;;;;;;11.17;6.30;;;4.20;99.90;;;;;;4991974;28;20705;-67
2022/03/16 05:11:14;;;;;;;8.70;5.60;;;4.20;99.90;;;;;;5007094;28;20774;-67
2022/03/16 05:13:41;;;;;;;9.53;6.57;;;4.20;99.90;;;;;;5006932;28;20429;-67
2022/03/16 05:16:07;;;;;;;7.97;5.20;;;4.20;99.90;;;;;;5006950;28;20440;-67
2022/03/16 05:18:33;;;;;;;9.00;5.47;;;4.20;99.90;;;;;;5006884;28;20859;-67
2022/03/16 05:21:00;;;;;;;11.03;7.43;;;4.20;99.90;;;;;;5009871;28;20484;-67
2022/03/16 05:23:25;;;;;;;15.37;6.57;;;4.20;99.90;;;;;;5010472;28;20434;-67
2022/03/16 05:25:51;;;;;;;8.93;5.83;;;4.10;99.90;;;;;;5010525;28;20465;-67
2022/03/16 05:28:17;;;;;;;9.57;6.17;;;4.10;99.90;;;;;;5010378;28;20657;-67
2022/03/16 05:30:44;;;;;;;10.47;5.70;;;4.10;99.90;;;;;;5010686;28;20420;-67
2022/03/16 05:33:09;;;;;;;13.37;6.80;;;4.10;99.90;;;;;;5010474;28;20428;-67
2022/03/16 05:35:35;;;;;;;8.73;4.93;;;4.00;99.90;;;;;;5010539;28;20427;-67
2022/03/16 05:38:05;;;;;;;7.90;4.70;;;4.00;99.90;;;;;;5009925;28;20392;-67
2022/03/16 05:40:31;;;;;;;8.87;5.80;;;4.00;99.90;;;;;;5010070;28;20803;-67
2022/03/16 05:42:57;;;;;;;8.90;5.30;;;4.00;99.90;;;;;;5010529;28;20421;-67
2022/03/16 05:45:23;;;;;;;7.60;4.87;;;4.00;99.90;;;;;;5010112;28;20483;-67
2022/03/16 05:47:49;;;;;;;7.17;4.90;;;4.00;99.90;;;;;;5010223;28;20233;-67
2022/03/16 05:50:15;;;;;;;7.60;5.53;;;3.90;99.90;;;;;;5010221;28;20186;-68
2022/03/16 05:52:43;;;;;;;8.67;4.83;;;4.00;99.90;;;;;;5010188;28;20498;-67
2022/03/16 05:55:09;;;;;;;6.70;4.63;;;3.90;99.90;;;;;;5010182;28;20593;-67
2022/03/16 05:57:39;;;;;;;9.57;5.20;;;3.90;99.90;;;;;;5009936;28;20528;-68
2022/03/16 06:00:14;;;;;;;8.20;5.20;;;3.80;99.90;;;;;;5009736;28;20436;-67
2022/03/16 06:02:41;;;;;;;7.57;5.87;;;3.80;99.90;;;;;;5009693;28;20468;-67
2022/03/16 06:05:08;;;;;;;10.63;5.47;;;3.80;99.90;;;;;;5009797;28;20472;-67
2022/03/16 06:07:34;;;;;;;6.97;4.70;;;3.80;99.90;;;;;;5009596;28;20519;-67
2022/03/16 06:10:00;;;;;;;7.80;4.57;;;3.80;99.90;;;;;;5010050;28;20527;-67
2022/03/16 06:12:25;;;;;;;8.50;5.43;;;3.80;99.90;;;;;;5009888;28;20174;-67
2022/03/16 06:14:52;;;;;;;11.10;5.20;;;3.90;99.90;;;;;;5010154;28;20483;-69
2022/03/16 06:17:17;;;;;;;9.50;5.60;;;4.00;99.90;;;;;;5009474;28;20441;-68
2022/03/16 06:19:43;;;;;;;8.00;5.13;;;4.10;99.90;;;;;;5010022;28;20447;-69
2022/03/16 06:22:09;;;;;;;7.27;5.33;;;4.20;99.90;;;;;;5010065;28;20236;-69
2022/03/16 06:24:34;;;;;;;5.37;4.20;;;4.30;99.90;;;;;;5009345;28;20233;-69
2022/03/16 06:27:00;;;;;;;5.17;3.90;;;4.50;99.90;;;;;;5009368;28;20205;-69
2022/03/16 06:29:26;;;;;;;9.53;5.80;;;4.50;99.90;;;;;;5009547;28;20526;-69
2022/03/16 06:31:52;;;;;;;7.60;4.47;;;4.70;99.90;;;;;;5008716;28;20615;-69
2022/03/16 06:34:18;;;;;;;6.07;4.83;;;4.80;99.90;;;;;;5009366;28;20675;-69
2022/03/16 06:36:43;;;;;;;9.73;5.00;;;4.90;99.90;;;;;;5009142;28;20645;-69
2022/03/16 06:39:09;;;;;;;6.87;4.50;;;5.00;99.90;;;;;;5009273;28;20205;-69
2022/03/16 06:41:35;;;;;;;8.93;5.40;;;5.10;99.90;;;;;;5009440;28;20186;-69
2022/03/16 06:44:01;;;;;;;5.77;3.67;;;5.20;99.90;;;;;;5009121;28;20186;-69
2022/03/16 06:46:27;;;;;;;7.57;5.67;;;5.20;99.90;;;;;;5008877;28;20644;-69
2022/03/16 06:48:53;;;;;;;8.20;4.27;;;5.30;99.90;;;;;;5009073;28;20182;-69
2022/03/16 06:51:19;;;;;;;8.30;4.90;;;5.30;99.90;;;;;;5009089;28;20422;-69
2022/03/16 06:53:44;;;;;;;7.37;4.87;;;5.40;99.90;;;;;;5008928;28;20928;-69
2022/03/16 06:56:10;;;;;;;9.33;4.87;;;5.40;99.90;;;;;;5008770;28;20213;-69
2022/03/16 06:58:36;;;;;;;8.63;5.30;;;5.50;99.90;;;;;;5008255;28;20190;-68
2022/03/16 07:01:02;;;;;;;9.17;5.20;;;5.50;99.90;;;;;;5008909;28;20191;-68
2022/03/16 07:03:28;;;;;;;8.60;5.33;;;5.60;99.90;;;;;;4992300;28;20233;-68
2022/03/16 07:05:53;;;;;;;12.23;6.20;;;5.60;99.90;;;;;;5007922;28;20986;-68
2022/03/16 07:08:19;;;;;;;16.13;6.80;;;5.60;99.90;;;;;;5008594;28;20217;-67
2022/03/16 07:10:45;;;;;;;12.83;6.53;;;5.60;99.90;;;;;;5008734;28;20213;-68
2022/03/16 07:13:12;;;;;;;7.70;5.90;;;5.50;99.90;;;;;;5008816;28;20529;-68
2022/03/16 07:15:40;;;;;;;8.53;5.90;;;5.60;99.90;;;;;;5008605;28;20456;-68
2022/03/16 07:18:06;;;;;;;11.90;7.30;;;5.70;99.90;;;;;;5008313;28;20449;-68
2022/03/16 07:20:33;;;;;;;11.73;6.43;;;5.70;99.90;;;;;;5008559;28;20479;-68
2022/03/16 07:23:09;;;;;;;13.50;7.60;;;5.70;99.90;;;;;;5008461;28;20802;-68
2022/03/16 07:25:46;;;;;;;11.97;7.17;;;5.70;99.90;;;;;;5008487;28;20476;-68
2022/03/16 07:28:13;;;;;;;11.40;6.80;;;5.70;99.90;;;;;;5008237;28;20420;-68
2022/03/16 07:30:40;;;;;;;11.13;9.17;;;5.80;99.90;;;;;;5008383;28;20477;-69
2022/03/16 07:33:06;;;;;;;10.33;7.63;;;5.90;99.90;;;;;;5008332;28;20420;-69
2022/03/16 07:35:35;;;;;;;9.73;6.40;;;5.90;99.90;;;;;;5008073;28;20427;-69
2022/03/16 07:38:03;;;;;;;15.37;8.03;;;6.10;99.90;;;;;;5007730;28;20497;-69
2022/03/16 07:40:33;;;;;;;14.93;7.90;;;6.10;99.90;;;;;;5008454;28;20917;-69
2022/03/16 07:42:59;;;;;;;13.97;8.00;;;6.40;99.90;;;;;;5007895;28;20713;-68
2022/03/16 07:45:25;;;;;;;11.10;7.40;;;6.60;99.90;;;;;;5007847;28;21027;-68
2022/03/16 07:47:56;;;;;;;11.73;7.03;;;6.70;99.90;;;;;;5007970;28;20440;-68
2022/03/16 07:50:23;;;;;;;12.00;6.80;;;6.80;99.90;;;;;;5007975;28;20501;-68
2022/03/16 07:52:48;;;;;;;10.80;7.30;;;6.90;99.90;;;;;;5008034;28;20827;-68
2022/03/16 07:55:15;;;;;;;16.60;7.13;;;6.80;99.90;;;;;;5007873;28;20437;-68
2022/03/16 07:57:41;;;;;;;13.57;8.10;;;7.00;99.90;;;;;;5007379;28;20539;-68
2022/03/16 08:00:10;;;;;;;12.93;7.83;;;7.10;99.90;;;;;;5007798;28;20462;-68
2022/03/16 08:02:37;;;;;;;9.40;4.90;;;7.20;99.90;;;;;;5007919;28;20443;-68
2022/03/16 08:05:04;;;;;;;10.57;6.90;;;7.30;99.90;;;;;;5007705;28;21006;-68
2022/03/16 08:07:30;;;;;;;8.70;5.80;;;7.30;99.90;;;;;;5006949;28;20491;-68
2022/03/16 08:09:59;;;;;;;11.73;6.93;;;7.40;99.90;;;;;;5007485;28;20488;-68
2022/03/16 08:12:26;;;;;;;10.77;6.60;;;7.50;99.90;;;;;;5007697;28;20427;-68
2022/03/16 08:14:52;;;;;;;11.03;6.03;;;7.50;99.90;;;;;;5007746;28;20442;-68
2022/03/16 08:17:18;;;;;;;9.43;5.40;;;7.70;99.90;;;;;;5007308;28;20444;-68
2022/03/16 08:19:45;;;;;;;9.30;5.67;;;7.90;99.90;;;;;;5007712;28;20802;-69
2022/03/16 08:22:10;;;;;;;8.50;5.70;;;8.10;99.90;;;;;;5007532;28;20440;-68
2022/03/16 08:24:37;;;;;;;9.97;6.23;;;8.10;99.90;;;;;;5007500;28;20457;-68
2022/03/16 08:27:03;;;;;;;9.10;6.70;;;8.30;99.90;;;;;;5006094;28;20244;-68
2022/03/16 08:29:29;;;;;;;11.30;5.47;;;8.40;99.90;;;;;;5006878;28;20429;-67
2022/03/16 08:31:55;;;;;;;7.90;5.70;;;8.50;99.90;;;;;;5007412;28;20996;-68
2022/03/16 08:34:21;;;;;;;7.97;5.77;;;8.60;99.90;;;;;;5007384;28;20436;-68
2022/03/16 08:36:46;;;;;;;10.40;5.63;;;8.70;99.90;;;;;;5007196;28;20522;-68
2022/03/16 08:39:15;;;;;;;9.70;5.90;;;8.70;99.90;;;;;;5007188;28;20436;-68
2022/03/16 08:41:41;;;;;;;8.93;5.70;;;8.90;99.90;;;;;;5007434;28;20189;-68
2022/03/16 08:44:08;;;;;;;8.23;5.10;;;9.00;99.90;;;;;;5007104;28;20801;-68
2022/03/16 08:46:33;;;;;;;8.43;5.83;;;9.10;99.90;;;;;;5006737;28;20995;-68
2022/03/16 08:48:59;;;;;;;9.97;5.40;;;9.10;99.90;;;;;;5007672;28;20600;-69
2022/03/16 08:51:25;;;;;;;11.20;5.73;;;9.20;99.90;;;;;;5005830;28;20293;-68
2022/03/16 08:53:50;;;;;;;10.37;5.90;;;9.40;99.90;;;;;;4990104;28;20641;-68
2022/03/16 08:56:16;;;;;;;10.87;6.30;;;9.40;99.90;;;;;;4994292;28;20223;-68
2022/03/16 08:58:43;;;;;;;9.23;5.50;;;9.40;99.90;;;;;;4994571;28;20193;-68
2022/03/16 09:01:09;;;;;;;9.70;5.40;;;9.40;99.90;;;;;;4994367;28;20483;-69
2022/03/16 09:03:35;;;;;;;9.37;5.90;;;9.40;99.90;;;;;;4994746;28;20859;-69
2022/03/16 09:06:01;;;;;;;9.07;5.23;;;9.50;99.90;;;;;;4993852;28;20504;-68
2022/03/16 09:08:27;;;;;;;11.00;5.83;;;9.60;99.90;;;;;;4994461;28;20208;-69
2022/03/16 09:10:53;;;;;;;8.87;4.57;;;9.50;99.90;;;;;;4993606;28;21011;-68
2022/03/16 09:13:20;;;;;;;9.97;6.67;;;9.50;99.90;;;;;;4994571;28;20185;-69
2022/03/16 09:15:46;;;;;;;8.57;6.27;;;9.60;99.90;;;;;;4993613;28;20510;-68
2022/03/16 09:18:12;;;;;;;11.60;6.47;;;9.70;99.90;;;;;;4994420;28;20820;-68
2022/03/16 09:20:38;;;;;;;8.73;5.00;;;9.80;99.90;;;;;;4994461;28;20182;-69
2022/03/16 09:23:04;;;;;;;7.77;5.00;;;9.90;99.90;;;;;;4994440;28;20428;-69
2022/03/16 09:25:29;;;;;;;8.47;5.87;;;10.00;99.90;;;;;;4994425;28;20477;-68
2022/03/16 09:27:55;;;;;;;9.80;5.60;;;10.10;99.90;;;;;;4994045;28;20856;-68
2022/03/16 09:30:23;;;;;;;7.60;4.97;;;10.30;99.90;;;;;;4993433;28;20601;-69
2022/03/16 09:32:49;;;;;;;9.90;5.30;;;10.50;99.90;;;;;;4994143;28;20276;-68
2022/03/16 09:35:15;;;;;;;8.17;5.07;;;10.60;99.90;;;;;;4994233;28;20848;-69
2022/03/16 09:37:40;;;;;;;7.27;4.80;;;10.60;99.90;;;;;;4993663;28;20445;-68
2022/03/16 09:40:07;;;;;;;6.40;4.43;;;10.80;99.90;;;;;;4994261;28;20539;-68
2022/03/16 09:42:34;;;;;;;7.33;5.10;;;10.90;99.90;;;;;;4994073;28;20186;-68
2022/03/16 09:45:03;;;;;;;8.97;5.63;;;11.10;99.90;;;;;;4994427;28;20868;-69
2022/03/16 09:50:19;;;;;;;8.57;5.17;;;11.30;99.90;;;;;;5027158;28;20471;-66
2022/03/16 09:52:46;;;;;;;16.37;8.00;;;11.60;99.90;;;;;;5032939;28;20924;-69
2022/03/16 09:55:13;;;;;;;9.40;6.00;;;11.70;99.90;;;;;;5030659;28;20455;-67
2022/03/16 09:57:39;;;;;;;9.57;5.10;;;12.20;99.90;;;;;;5029367;28;20451;-66
2022/03/16 10:00:06;;;;;;;13.10;6.47;;;13.50;99.90;;;;;;5032687;28;20415;-69
2022/03/16 10:02:32;;;;;;;12.23;6.37;;;14.80;99.90;;;;;;5029957;28;20944;-68
2022/03/16 10:04:58;;;;;;;10.30;6.27;;;16.40;99.90;;;;;;5031655;28;20470;-69
2022/03/16 10:07:30;;;;;;;10.37;6.00;;;18.10;99.90;;;;;;5031571;28;20462;-71
2022/03/16 10:15:25;;;;;;;9.53;5.33;;;21.10;98.50;;;;;;5033727;28;20449;-74
2022/03/16 10:18:02;;;;;;;7.13;5.33;;;22.10;94.70;;;;;;5031774;28;20813;-67
2022/03/16 10:20:46;;;;;;;7.80;5.03;;;23.10;91.00;;;;;;5032715;28;20488;-65
2022/03/16 10:23:24;;;;;;;9.50;5.43;;;24.60;80.40;;;;;;5032648;28;20525;-68
2022/03/16 10:25:55;;;;;;;9.37;5.67;;;;;;;;;;5032337;28;20470;-67
2022/03/16 10:28:25;;;;;;;30.47;12.93;;;;;;;;;;5032318;28;20787;-68
2022/03/16 10:30:58;;;;;;;6.83;5.30;;;26.10;61.60;;;;;;5032323;28;20949;-74
2022/03/16 10:33:29;;;;;;;7.00;5.00;;;26.00;59.10;;;;;;5031974;28;20431;-68
2022/03/16 10:36:01;;;;;;;8.20;5.20;;;26.20;56.30;;;;;;5032282;28;20493;-68
2022/03/16 10:38:28;;;;;;;7.20;5.17;;;26.00;54.80;;;;;;5032135;28;20427;-69
2022/03/16 10:41:08;;;;;;;7.13;4.87;;;26.40;55.20;;;;;;5032105;28;20446;-68
2022/03/16 10:46:38;;;;;;;6.47;5.30;;;26.20;52.60;;;;;;5033241;28;20514;-67
2022/03/16 10:49:09;;;;;;;6.83;5.80;;;26.00;53.30;;;;;;5031971;28;20533;-67
2022/03/16 10:51:37;;;;;;;5.80;4.50;;;26.10;53.10;;;;;;5032032;28;20976;-68
2022/03/16 10:54:05;;;;;;;7.03;4.90;;;25.80;52.00;;;;;;5032037;28;20875;-67
2022/03/16 10:56:31;;;;;;;5.77;4.73;;;25.30;52.80;;;;;;5030410;28;20443;-68
2022/03/16 10:58:58;;;;;;;6.20;4.80;;;24.70;52.60;;;;;;5031409;28;20478;-69
2022/03/16 11:01:26;;;;;;;7.97;5.33;;;24.10;52.80;;;;;;5031738;28;20542;-72
2022/03/16 11:03:58;;;;;;;5.77;4.10;;;23.80;54.90;;;;;;5031504;28;20835;-69
2022/03/16 11:06:25;;;;;;;6.83;4.70;;;23.20;54.30;;;;;;5031554;28;20471;-69
2022/03/16 11:08:52;;;;;;;7.37;4.87;;;22.80;56.40;;;;;;5031834;28;20419;-69
2022/03/16 11:14:04;;;;;;;7.80;5.03;;;23.10;56.50;;;;;;5033407;28;20426;-66
2022/03/16 11:16:31;;;;;;;6.13;4.60;;;22.50;57.70;;;;;;5030128;28;20461;-66
2022/03/16 11:19:05;;;;;;;7.47;5.17;;;23.10;59.30;;;;;;5031690;28;20419;-67
2022/03/16 11:21:45;;;;;;;6.90;4.40;;;23.30;57.90;;;;;;5031571;28;20425;-69
2022/03/16 11:24:17;;;;;;;6.60;5.03;;;23.50;59.80;;;;;;5031522;28;20488;-70
2022/03/16 11:27:11;;;;;;;7.07;4.97;;;23.40;57.60;;;;;;5031237;28;20442;-69
2022/03/16 11:29:49;;;;;;;7.60;5.23;;;22.70;57.50;;;;;;5030803;28;20941;-70
2022/03/16 11:32:17;;;;;;;6.07;4.43;;;21.90;59.60;;;;;;5030849;28;20457;-69
2022/03/16 11:34:55;;;;;;;8.20;5.50;;;21.30;61.40;;;;;;5031088;28;20427;-70
2022/03/16 11:37:40;;;;;;;6.93;4.53;;;20.60;65.90;;;;;;5031086;28;20858;-70
2022/03/16 11:40:15;;;;;;;8.17;5.27;;;20.40;67.30;;;;;;5031307;28;20423;-70
2022/03/16 11:43:04;;;;;;;6.57;4.80;;;20.30;71.00;;;;;;5031159;28;20427;-70
2022/03/16 11:45:44;;;;;;;5.37;4.53;;;20.30;71.80;;;;;;5015746;28;20467;-71
2022/03/16 11:48:37;;;;;;;7.27;4.07;;;20.20;72.30;;;;;;5030718;28;20501;-71
2022/03/16 11:51:08;;;;;;;6.90;4.33;;;19.80;77.00;;;;;;5031033;28;20419;-70
2022/03/16 11:53:46;;;;;;;8.67;4.70;;;20.00;77.40;;;;;;5031024;28;20419;-70
2022/03/16 11:56:20;;;;;;;7.03;5.03;;;20.10;76.90;;;;;;5030630;28;20439;-70
2022/03/16 11:58:49;;;;;;;8.07;4.90;;;20.80;75.40;;;;;;5030872;28;20419;-70
2022/03/16 12:01:22;;;;;;;6.80;5.10;;;20.90;72.30;;;;;;5027451;28;20421;-70
2022/03/16 12:03:56;;;;;;;6.60;4.83;;;20.80;73.80;;;;;;5041823;28;20980;-70
2022/03/16 12:06:30;;;;;;;6.27;4.70;;;20.60;73.50;;;;;;5029868;28;20547;-71
2022/03/16 12:08:59;;;;;;;6.30;4.07;;;20.60;74.00;;;;;;5030677;28;20415;-71
2022/03/16 12:14:10;;;;;;;6.93;4.50;;;21.90;73.40;;;;;;5031489;28;20508;-69
2022/03/16 12:16:42;;;;;;;5.67;5.07;;;23.10;68.80;;;;;;5029621;28;20431;-71
2022/03/16 12:19:29;;;;;;;6.87;5.80;;;23.50;66.40;;;;;;5030284;28;20415;-70
2022/03/16 12:21:57;;;;;;;5.90;4.20;;;23.60;61.00;;;;;;5030207;28;20419;-70
2022/03/16 12:30:24;;;;;;;6.17;4.50;;;23.00;60.40;;;;;;5012258;28;20489;-70
2022/03/16 12:32:52;;;;;;;5.77;4.13;;;22.80;60.50;;;;;;5011047;28;20420;-67
2022/03/16 12:35:18;;;;;;;6.00;4.30;;;22.70;61.00;;;;;;5010799;28;20777;-68
2022/03/16 12:37:50;;;;;;;5.60;4.27;;;;;;;;;;5010516;28;20506;-67
2022/03/16 12:40:20;;;;;;;5.30;4.13;;;22.50;59.20;;;;;;5027125;28;20430;-64
2022/03/16 12:42:53;;;;;;;4.87;3.70;;;22.20;59.80;;;;;;5010767;28;20806;-67
2022/03/16 12:45:22;;;;;;;6.03;4.17;;;22.20;60.00;;;;;;5010623;28;20463;-66
2022/03/16 12:48:03;;;;;;;4.23;3.40;;;21.90;61.00;;;;;;5010436;28;20439;-67
2022/03/16 12:50:29;;;;;;;6.30;4.53;;;21.40;63.10;;;;;;5010617;28;20522;-69
2022/03/16 12:52:54;;;;;;;5.60;4.60;;;20.60;65.00;;;;;;5027031;28;20503;-67
2022/03/16 12:55:20;;;;;;;6.63;3.90;;;20.50;67.60;;;;;;5010493;28;20435;-67
2022/03/16 12:57:55;;;;;;;5.83;3.93;;;20.50;67.70;;;;;;5010159;28;20201;-67
2022/03/16 13:00:21;;;;;;;5.07;3.90;;;20.70;69.10;;;;;;5010498;28;20195;-66
2022/03/16 13:02:48;;;;;;;6.60;4.20;;;20.60;69.80;;;;;;5010581;28;20420;-66
2022/03/16 13:05:18;;;;;;;4.97;3.97;;;20.40;71.70;;;;;;5010447;28;20603;-66
2022/03/16 13:07:44;;;;;;;5.37;3.53;;;20.20;73.20;;;;;;5010184;28;20444;-66
2022/03/16 13:10:10;;;;;;;5.53;4.10;;;19.90;73.20;;;;;;5009810;28;20424;-66
2022/03/16 13:12:38;;;;;;;6.00;4.43;;;19.80;76.00;;;;;;5025514;28;20436;-65
2022/03/16 13:15:04;;;;;;;6.33;4.37;;;19.60;75.60;;;;;;5024818;28;20624;-66
2022/03/16 13:17:37;;;;;;;6.03;4.03;;;19.50;78.20;;;;;;5026314;28;20451;-66